sensor_id;sensor_type;location;lat;lon;timestamp;temperature;humidity
76269;DHT22;65088;52.352;4.846;2023-01-01T00:02:24;14.90;66.10
76269;DHT22;65088;52.352;4.846;2023-01-01T00:04:54;14.90;66.20
76269;DHT22;65088;52.352;4.846;2023-01-01T00:07:23;14.90;66.20
76269;DHT22;65088;52.352;4.846;2023-01-01T00:09:52;14.80;66.10
76269;DHT22;65088;52.352;4.846;2023-01-01T00:12:34;14.80;66.30
76269;DHT22;65088;52.352;4.846;2023-01-01T00:15:06;14.80;66.50
76269;DHT22;65088;52.352;4.846;2023-01-01T00:17:38;14.80;66.20
76269;DHT22;65088;52.352;4.846;2023-01-01T00:20:09;14.80;66.40
76269;DHT22;65088;52.352;4.846;2023-01-01T00:22:38;14.80;66.40
76269;DHT22;65088;52.352;4.846;2023-01-01T00:25:09;14.80;66.40
76269;DHT22;65088;52.352;4.846;2023-01-01T00:27:39;14.80;66.30
76269;DHT22;65088;52.352;4.846;2023-01-01T00:30:10;14.80;66.30
76269;DHT22;65088;52.352;4.846;2023-01-01T00:32:43;14.80;66.40
76269;DHT22;65088;52.352;4.846;2023-01-01T00:35:12;14.80;66.40
76269;DHT22;65088;52.352;4.846;2023-01-01T00:37:42;14.80;66.50
76269;DHT22;65088;52.352;4.846;2023-01-01T00:40:13;14.70;66.50
76269;DHT22;65088;52.352;4.846;2023-01-01T00:42:43;14.70;66.50
76269;DHT22;65088;52.352;4.846;2023-01-01T00:45:13;14.70;66.60
76269;DHT22;65088;52.352;4.846;2023-01-01T00:47:45;14.60;66.70
76269;DHT22;65088;52.352;4.846;2023-01-01T00:50:15;14.60;66.70
76269;DHT22;65088;52.352;4.846;2023-01-01T00:52:44;14.60;66.60
76269;DHT22;65088;52.352;4.846;2023-01-01T00:55:14;14.60;66.70
76269;DHT22;65088;52.352;4.846;2023-01-01T00:57:43;14.60;67.10
76269;DHT22;65088;52.352;4.846;2023-01-01T01:00:14;14.40;67.70
76269;DHT22;65088;52.352;4.846;2023-01-01T01:02:46;14.10;68.50
76269;DHT22;65088;52.352;4.846;2023-01-01T01:05:16;13.90;69.30
76269;DHT22;65088;52.352;4.846;2023-01-01T01:07:45;13.60;70.10
76269;DHT22;65088;52.352;4.846;2023-01-01T01:10:15;13.40;70.90
76269;DHT22;65088;52.352;4.846;2023-01-01T01:12:47;13.30;71.10
76269;DHT22;65088;52.352;4.846;2023-01-01T01:15:18;13.30;71.40
76269;DHT22;65088;52.352;4.846;2023-01-01T01:17:50;13.30;71.60
76269;DHT22;65088;52.352;4.846;2023-01-01T01:20:20;13.30;71.50
76269;DHT22;65088;52.352;4.846;2023-01-01T01:22:49;13.40;71.40
76269;DHT22;65088;52.352;4.846;2023-01-01T01:25:19;13.70;70.60
76269;DHT22;65088;52.352;4.846;2023-01-01T01:27:49;13.90;69.80
76269;DHT22;65088;52.352;4.846;2023-01-01T01:30:18;14.10;69.00
76269;DHT22;65088;52.352;4.846;2023-01-01T01:32:51;14.20;68.50
76269;DHT22;65088;52.352;4.846;2023-01-01T01:35:21;14.30;67.80
76269;DHT22;65088;52.352;4.846;2023-01-01T01:37:50;14.40;67.60
76269;DHT22;65088;52.352;4.846;2023-01-01T01:40:19;14.40;67.00
76269;DHT22;65088;52.352;4.846;2023-01-01T01:42:50;14.50;66.90
76269;DHT22;65088;52.352;4.846;2023-01-01T01:45:20;14.50;66.50
76269;DHT22;65088;52.352;4.846;2023-01-01T01:47:53;14.50;66.50
76269;DHT22;65088;52.352;4.846;2023-01-01T01:50:28;14.50;66.30
76269;DHT22;65088;52.352;4.846;2023-01-01T01:53:05;14.50;66.20
76269;DHT22;65088;52.352;4.846;2023-01-01T01:55:39;14.50;66.30
76269;DHT22;65088;52.352;4.846;2023-01-01T01:58:11;14.50;66.30
76269;DHT22;65088;52.352;4.846;2023-01-01T02:00:41;14.50;66.20
76269;DHT22;65088;52.352;4.846;2023-01-01T02:03:15;14.50;66.30
76269;DHT22;65088;52.352;4.846;2023-01-01T02:05:46;14.50;66.40
76269;DHT22;65088;52.352;4.846;2023-01-01T02:08:17;14.50;66.60
76269;DHT22;65088;52.352;4.846;2023-01-01T02:10:47;14.60;66.30
76269;DHT22;65088;52.352;4.846;2023-01-01T02:13:17;14.70;66.30
76269;DHT22;65088;52.352;4.846;2023-01-01T02:15:50;14.80;66.30
76269;DHT22;65088;52.352;4.846;2023-01-01T02:18:24;14.80;66.10
76269;DHT22;65088;52.352;4.846;2023-01-01T02:21:01;14.80;66.10
76269;DHT22;65088;52.352;4.846;2023-01-01T02:23:51;14.80;66.10
76269;DHT22;65088;52.352;4.846;2023-01-01T02:26:37;14.90;66.10
76269;DHT22;65088;52.352;4.846;2023-01-01T02:29:22;14.90;66.00
76269;DHT22;65088;52.352;4.846;2023-01-01T02:31:58;14.90;66.00
76269;DHT22;65088;52.352;4.846;2023-01-01T02:34:33;14.90;66.00
76269;DHT22;65088;52.352;4.846;2023-01-01T02:37:05;14.90;66.00
76269;DHT22;65088;52.352;4.846;2023-01-01T02:39:38;15.00;65.90
76269;DHT22;65088;52.352;4.846;2023-01-01T02:42:10;15.00;66.00
76269;DHT22;65088;52.352;4.846;2023-01-01T02:44:45;15.00;66.00
76269;DHT22;65088;52.352;4.846;2023-01-01T02:47:17;14.90;66.00
76269;DHT22;65088;52.352;4.846;2023-01-01T02:49:58;14.90;66.00
76269;DHT22;65088;52.352;4.846;2023-01-01T02:52:55;14.90;66.00
76269;DHT22;65088;52.352;4.846;2023-01-01T02:55:33;14.90;66.00
76269;DHT22;65088;52.352;4.846;2023-01-01T02:58:11;14.90;65.80
76269;DHT22;65088;52.352;4.846;2023-01-01T03:01:00;14.90;65.70
76269;DHT22;65088;52.352;4.846;2023-01-01T03:03:37;14.90;65.70
76269;DHT22;65088;52.352;4.846;2023-01-01T03:06:11;14.90;65.60
76269;DHT22;65088;52.352;4.846;2023-01-01T03:08:59;14.80;65.60
76269;DHT22;65088;52.352;4.846;2023-01-01T03:11:36;14.80;65.80
76269;DHT22;65088;52.352;4.846;2023-01-01T03:14:11;14.80;65.90
76269;DHT22;65088;52.352;4.846;2023-01-01T03:16:46;14.70;66.00
76269;DHT22;65088;52.352;4.846;2023-01-01T03:19:18;14.80;66.20
76269;DHT22;65088;52.352;4.846;2023-01-01T03:21:51;14.60;67.60
76269;DHT22;65088;52.352;4.846;2023-01-01T03:24:26;14.00;68.90
76269;DHT22;65088;52.352;4.846;2023-01-01T03:27:01;13.50;70.70
76269;DHT22;65088;52.352;4.846;2023-01-01T03:29:34;13.20;71.90
76269;DHT22;65088;52.352;4.846;2023-01-01T03:32:10;13.00;72.70
76269;DHT22;65088;52.352;4.846;2023-01-01T03:34:48;12.90;73.10
76269;DHT22;65088;52.352;4.846;2023-01-01T03:37:22;12.80;73.50
76269;DHT22;65088;52.352;4.846;2023-01-01T03:39:55;12.80;73.30
76269;DHT22;65088;52.352;4.846;2023-01-01T03:42:30;12.80;72.90
76269;DHT22;65088;52.352;4.846;2023-01-01T03:45:00;12.80;72.60
76269;DHT22;65088;52.352;4.846;2023-01-01T03:47:32;12.90;72.20
76269;DHT22;65088;52.352;4.846;2023-01-01T03:50:02;12.90;72.00
76269;DHT22;65088;52.352;4.846;2023-01-01T03:52:42;13.00;71.80
76269;DHT22;65088;52.352;4.846;2023-01-01T03:55:17;13.10;71.60
76269;DHT22;65088;52.352;4.846;2023-01-01T03:57:54;13.20;71.20
76269;DHT22;65088;52.352;4.846;2023-01-01T04:00:27;13.30;70.60
76269;DHT22;65088;52.352;4.846;2023-01-01T04:03:03;13.50;69.80
76269;DHT22;65088;52.352;4.846;2023-01-01T04:05:35;13.60;69.10
76269;DHT22;65088;52.352;4.846;2023-01-01T04:08:06;13.60;69.10
76269;DHT22;65088;52.352;4.846;2023-01-01T04:10:40;13.70;68.70
76269;DHT22;65088;52.352;4.846;2023-01-01T04:13:12;13.70;68.20
76269;DHT22;65088;52.352;4.846;2023-01-01T04:15:44;13.80;67.80
76269;DHT22;65088;52.352;4.846;2023-01-01T04:18:16;13.80;67.30
76269;DHT22;65088;52.352;4.846;2023-01-01T04:20:46;13.80;67.00
76269;DHT22;65088;52.352;4.846;2023-01-01T04:23:15;13.80;66.90
76269;DHT22;65088;52.352;4.846;2023-01-01T04:25:44;13.80;66.80
76269;DHT22;65088;52.352;4.846;2023-01-01T04:28:13;13.70;66.70
76269;DHT22;65088;52.352;4.846;2023-01-01T04:30:43;13.70;66.50
76269;DHT22;65088;52.352;4.846;2023-01-01T04:33:12;13.60;66.80
76269;DHT22;65088;52.352;4.846;2023-01-01T04:35:45;13.50;66.90
76269;DHT22;65088;52.352;4.846;2023-01-01T04:38:14;13.50;66.90
76269;DHT22;65088;52.352;4.846;2023-01-01T04:40:43;13.50;66.50
76269;DHT22;65088;52.352;4.846;2023-01-01T04:43:12;13.40;66.30
76269;DHT22;65088;52.352;4.846;2023-01-01T04:45:42;13.40;66.10
76269;DHT22;65088;52.352;4.846;2023-01-01T04:48:11;13.40;66.40
76269;DHT22;65088;52.352;4.846;2023-01-01T04:50:41;13.40;66.60
76269;DHT22;65088;52.352;4.846;2023-01-01T04:53:13;13.30;66.70
76269;DHT22;65088;52.352;4.846;2023-01-01T04:55:43;13.30;67.00
76269;DHT22;65088;52.352;4.846;2023-01-01T04:58:12;13.20;67.20
76269;DHT22;65088;52.352;4.846;2023-01-01T05:00:43;13.20;67.30
76269;DHT22;65088;52.352;4.846;2023-01-01T05:03:16;13.10;67.40
76269;DHT22;65088;52.352;4.846;2023-01-01T05:05:45;13.10;67.50
76269;DHT22;65088;52.352;4.846;2023-01-01T05:08:18;13.10;67.60
76269;DHT22;65088;52.352;4.846;2023-01-01T05:10:47;13.10;67.40
76269;DHT22;65088;52.352;4.846;2023-01-01T05:13:16;13.00;67.20
76269;DHT22;65088;52.352;4.846;2023-01-01T05:15:46;13.00;67.20
76269;DHT22;65088;52.352;4.846;2023-01-01T05:18:15;13.00;67.30
76269;DHT22;65088;52.352;4.846;2023-01-01T05:20:45;13.00;67.30
76269;DHT22;65088;52.352;4.846;2023-01-01T05:23:17;13.00;67.40
76269;DHT22;65088;52.352;4.846;2023-01-01T05:25:46;13.00;67.60
76269;DHT22;65088;52.352;4.846;2023-01-01T05:28:16;12.90;67.90
76269;DHT22;65088;52.352;4.846;2023-01-01T05:30:45;12.90;68.20
76269;DHT22;65088;52.352;4.846;2023-01-01T05:33:14;12.90;68.70
76269;DHT22;65088;52.352;4.846;2023-01-01T05:35:44;12.90;68.90
76269;DHT22;65088;52.352;4.846;2023-01-01T05:38:13;12.90;69.10
76269;DHT22;65088;52.352;4.846;2023-01-01T05:40:45;12.80;69.20
76269;DHT22;65088;52.352;4.846;2023-01-01T05:43:15;12.90;69.20
76269;DHT22;65088;52.352;4.846;2023-01-01T05:45:45;12.80;69.20
76269;DHT22;65088;52.352;4.846;2023-01-01T05:48:14;12.80;69.20
76269;DHT22;65088;52.352;4.846;2023-01-01T05:50:44;12.80;69.10
76269;DHT22;65088;52.352;4.846;2023-01-01T05:53:13;12.90;69.10
76269;DHT22;65088;52.352;4.846;2023-01-01T05:55:51;12.90;69.10
76269;DHT22;65088;52.352;4.846;2023-01-01T05:58:21;12.90;69.00
76269;DHT22;65088;52.352;4.846;2023-01-01T06:00:50;12.80;69.10
76269;DHT22;65088;52.352;4.846;2023-01-01T06:03:20;12.80;69.00
76269;DHT22;65088;52.352;4.846;2023-01-01T06:05:49;12.80;69.00
76269;DHT22;65088;52.352;4.846;2023-01-01T06:08:18;12.80;69.00
76269;DHT22;65088;52.352;4.846;2023-01-01T06:10:57;12.80;69.10
76269;DHT22;65088;52.352;4.846;2023-01-01T06:13:26;12.80;69.10
76269;DHT22;65088;52.352;4.846;2023-01-01T06:15:57;12.80;68.90
76269;DHT22;65088;52.352;4.846;2023-01-01T06:18:29;12.80;68.90
76269;DHT22;65088;52.352;4.846;2023-01-01T06:21:03;12.80;68.90
76269;DHT22;65088;52.352;4.846;2023-01-01T06:23:33;12.80;68.70
76269;DHT22;65088;52.352;4.846;2023-01-01T06:26:10;12.80;68.70
76269;DHT22;65088;52.352;4.846;2023-01-01T06:28:40;12.80;68.80
76269;DHT22;65088;52.352;4.846;2023-01-01T06:31:11;12.80;69.00
76269;DHT22;65088;52.352;4.846;2023-01-01T06:33:41;12.80;69.20
76269;DHT22;65088;52.352;4.846;2023-01-01T06:36:12;12.70;69.30
76269;DHT22;65088;52.352;4.846;2023-01-01T06:38:44;12.70;69.50
76269;DHT22;65088;52.352;4.846;2023-01-01T06:41:18;12.70;69.70
76269;DHT22;65088;52.352;4.846;2023-01-01T06:43:49;12.70;69.90
76269;DHT22;65088;52.352;4.846;2023-01-01T06:46:20;12.60;70.00
76269;DHT22;65088;52.352;4.846;2023-01-01T06:48:52;12.60;70.00
76269;DHT22;65088;52.352;4.846;2023-01-01T06:51:24;12.60;70.00
76269;DHT22;65088;52.352;4.846;2023-01-01T06:53:56;12.60;70.10
76269;DHT22;65088;52.352;4.846;2023-01-01T06:56:29;12.50;70.30
76269;DHT22;65088;52.352;4.846;2023-01-01T06:58:59;12.50;70.50
76269;DHT22;65088;52.352;4.846;2023-01-01T07:01:30;12.50;70.60
76269;DHT22;65088;52.352;4.846;2023-01-01T07:04:02;12.50;70.70
76269;DHT22;65088;52.352;4.846;2023-01-01T07:06:34;12.40;70.70
76269;DHT22;65088;52.352;4.846;2023-01-01T07:09:04;12.40;70.80
76269;DHT22;65088;52.352;4.846;2023-01-01T07:11:36;12.40;70.90
76269;DHT22;65088;52.352;4.846;2023-01-01T07:14:05;12.40;70.90
76269;DHT22;65088;52.352;4.846;2023-01-01T07:16:35;12.30;70.90
76269;DHT22;65088;52.352;4.846;2023-01-01T07:19:04;12.30;70.90
76269;DHT22;65088;52.352;4.846;2023-01-01T07:21:38;12.30;70.90
76269;DHT22;65088;52.352;4.846;2023-01-01T07:24:10;12.30;70.80
76269;DHT22;65088;52.352;4.846;2023-01-01T07:26:43;12.30;70.90
76269;DHT22;65088;52.352;4.846;2023-01-01T07:29:14;12.30;70.90
76269;DHT22;65088;52.352;4.846;2023-01-01T07:31:44;12.20;70.80
76269;DHT22;65088;52.352;4.846;2023-01-01T07:34:15;12.20;70.90
76269;DHT22;65088;52.352;4.846;2023-01-01T07:36:45;12.20;70.90
76269;DHT22;65088;52.352;4.846;2023-01-01T07:39:16;12.20;70.90
76269;DHT22;65088;52.352;4.846;2023-01-01T07:41:48;12.20;70.80
76269;DHT22;65088;52.352;4.846;2023-01-01T07:44:17;12.20;70.80
76269;DHT22;65088;52.352;4.846;2023-01-01T07:46:46;12.20;70.70
76269;DHT22;65088;52.352;4.846;2023-01-01T07:49:16;12.20;70.70
76269;DHT22;65088;52.352;4.846;2023-01-01T07:51:46;12.20;70.70
76269;DHT22;65088;52.352;4.846;2023-01-01T07:54:16;12.20;70.70
76269;DHT22;65088;52.352;4.846;2023-01-01T07:56:48;12.20;70.70
76269;DHT22;65088;52.352;4.846;2023-01-01T07:59:18;12.10;70.70
76269;DHT22;65088;52.352;4.846;2023-01-01T08:01:49;12.10;70.80
76269;DHT22;65088;52.352;4.846;2023-01-01T08:04:18;12.20;70.70
76269;DHT22;65088;52.352;4.846;2023-01-01T08:06:47;12.10;70.60
76269;DHT22;65088;52.352;4.846;2023-01-01T08:09:17;12.10;70.70
76269;DHT22;65088;52.352;4.846;2023-01-01T08:11:49;12.10;70.70
76269;DHT22;65088;52.352;4.846;2023-01-01T08:14:19;12.10;70.60
76269;DHT22;65088;52.352;4.846;2023-01-01T08:16:48;12.10;70.60
76269;DHT22;65088;52.352;4.846;2023-01-01T08:19:17;12.00;70.50
76269;DHT22;65088;52.352;4.846;2023-01-01T08:21:47;12.00;70.50
76269;DHT22;65088;52.352;4.846;2023-01-01T08:24:16;12.00;70.60
76269;DHT22;65088;52.352;4.846;2023-01-01T08:26:48;12.00;70.50
76269;DHT22;65088;52.352;4.846;2023-01-01T08:29:19;12.00;70.40
76269;DHT22;65088;52.352;4.846;2023-01-01T08:31:48;12.00;70.30
76269;DHT22;65088;52.352;4.846;2023-01-01T08:34:17;12.00;70.10
76269;DHT22;65088;52.352;4.846;2023-01-01T08:36:47;12.00;70.00
76269;DHT22;65088;52.352;4.846;2023-01-01T08:39:16;12.00;69.90
76269;DHT22;65088;52.352;4.846;2023-01-01T08:41:48;12.10;69.70
76269;DHT22;65088;52.352;4.846;2023-01-01T08:44:18;12.10;69.60
76269;DHT22;65088;52.352;4.846;2023-01-01T08:46:48;12.10;69.50
76269;DHT22;65088;52.352;4.846;2023-01-01T08:49:17;12.20;69.60
76269;DHT22;65088;52.352;4.846;2023-01-01T08:51:46;12.20;69.40
76269;DHT22;65088;52.352;4.846;2023-01-01T08:54:16;12.20;69.40
76269;DHT22;65088;52.352;4.846;2023-01-01T08:56:48;12.20;69.40
76269;DHT22;65088;52.352;4.846;2023-01-01T08:59:18;12.30;69.30
76269;DHT22;65088;52.352;4.846;2023-01-01T09:01:48;12.30;69.20
76269;DHT22;65088;52.352;4.846;2023-01-01T09:04:17;12.30;69.10
76269;DHT22;65088;52.352;4.846;2023-01-01T09:06:46;12.30;69.10
76269;DHT22;65088;52.352;4.846;2023-01-01T09:09:16;12.40;69.20
76269;DHT22;65088;52.352;4.846;2023-01-01T09:11:53;12.40;69.20
76269;DHT22;65088;52.352;4.846;2023-01-01T09:14:24;12.40;69.10
76269;DHT22;65088;52.352;4.846;2023-01-01T09:16:53;12.40;69.00
76269;DHT22;65088;52.352;4.846;2023-01-01T09:19:23;12.40;69.10
76269;DHT22;65088;52.352;4.846;2023-01-01T09:21:52;12.40;69.00
76269;DHT22;65088;52.352;4.846;2023-01-01T09:24:22;12.40;68.70
76269;DHT22;65088;52.352;4.846;2023-01-01T09:26:54;12.40;68.70
76269;DHT22;65088;52.352;4.846;2023-01-01T09:29:23;12.50;68.60
76269;DHT22;65088;52.352;4.846;2023-01-01T09:31:53;12.50;68.60
76269;DHT22;65088;52.352;4.846;2023-01-01T09:34:22;12.50;68.50
76269;DHT22;65088;52.352;4.846;2023-01-01T09:36:52;12.50;68.60
76269;DHT22;65088;52.352;4.846;2023-01-01T09:39:22;12.50;68.60
76269;DHT22;65088;52.352;4.846;2023-01-01T09:42:05;12.50;68.70
76269;DHT22;65088;52.352;4.846;2023-01-01T09:44:55;12.40;68.80
76269;DHT22;65088;52.352;4.846;2023-01-01T09:47:30;12.40;68.70
76269;DHT22;65088;52.352;4.846;2023-01-01T09:50:03;12.40;68.80
76269;DHT22;65088;52.352;4.846;2023-01-01T09:52:39;12.40;68.80
76269;DHT22;65088;52.352;4.846;2023-01-01T09:55:15;12.40;68.70
76269;DHT22;65088;52.352;4.846;2023-01-01T09:57:51;12.40;68.70
76269;DHT22;65088;52.352;4.846;2023-01-01T10:00:21;12.50;68.60
76269;DHT22;65088;52.352;4.846;2023-01-01T10:03:12;12.60;68.40
76269;DHT22;65088;52.352;4.846;2023-01-01T10:05:51;12.60;68.40
76269;DHT22;65088;52.352;4.846;2023-01-01T10:08:33;12.70;68.50
76269;DHT22;65088;52.352;4.846;2023-01-01T10:11:12;12.70;68.40
76269;DHT22;65088;52.352;4.846;2023-01-01T10:13:49;12.60;68.50
76269;DHT22;65088;52.352;4.846;2023-01-01T10:16:29;12.60;68.50
76269;DHT22;65088;52.352;4.846;2023-01-01T10:19:05;12.50;68.60
76269;DHT22;65088;52.352;4.846;2023-01-01T10:21:38;12.50;68.80
76269;DHT22;65088;52.352;4.846;2023-01-01T10:24:22;12.50;69.00
76269;DHT22;65088;52.352;4.846;2023-01-01T10:26:56;12.50;69.20
76269;DHT22;65088;52.352;4.846;2023-01-01T10:29:35;12.50;69.30
76269;DHT22;65088;52.352;4.846;2023-01-01T10:32:19;12.50;69.30
76269;DHT22;65088;52.352;4.846;2023-01-01T10:34:50;12.60;69.40
76269;DHT22;65088;52.352;4.846;2023-01-01T10:37:19;12.60;69.30
76269;DHT22;65088;52.352;4.846;2023-01-01T10:39:49;12.60;69.40
76269;DHT22;65088;52.352;4.846;2023-01-01T10:42:19;12.60;69.40
76269;DHT22;65088;52.352;4.846;2023-01-01T10:44:51;12.60;69.20
76269;DHT22;65088;52.352;4.846;2023-01-01T10:47:26;12.60;69.20
76269;DHT22;65088;52.352;4.846;2023-01-01T10:49:57;12.60;69.10
76269;DHT22;65088;52.352;4.846;2023-01-01T10:52:33;12.70;69.00
76269;DHT22;65088;52.352;4.846;2023-01-01T10:55:03;12.70;68.90
76269;DHT22;65088;52.352;4.846;2023-01-01T10:57:35;12.80;68.70
76269;DHT22;65088;52.352;4.846;2023-01-01T11:00:23;12.90;68.60
76269;DHT22;65088;52.352;4.846;2023-01-01T11:03:12;12.90;68.10
76269;DHT22;65088;52.352;4.846;2023-01-01T11:08:47;13.00;68.10
76269;DHT22;65088;52.352;4.846;2023-01-01T11:11:20;13.10;68.00
76269;DHT22;65088;52.352;4.846;2023-01-01T11:13:51;13.10;68.10
76269;DHT22;65088;52.352;4.846;2023-01-01T11:16:25;13.10;68.20
76269;DHT22;65088;52.352;4.846;2023-01-01T11:19:01;13.20;68.20
76269;DHT22;65088;52.352;4.846;2023-01-01T11:21:32;13.30;68.20
76269;DHT22;65088;52.352;4.846;2023-01-01T11:24:16;13.40;68.20
76269;DHT22;65088;52.352;4.846;2023-01-01T11:26:46;13.50;68.10
76269;DHT22;65088;52.352;4.846;2023-01-01T11:29:20;13.60;68.00
76269;DHT22;65088;52.352;4.846;2023-01-01T11:31:53;13.60;68.00
76269;DHT22;65088;52.352;4.846;2023-01-01T11:34:29;13.70;68.00
76269;DHT22;65088;52.352;4.846;2023-01-01T11:37:16;13.80;67.70
76269;DHT22;65088;52.352;4.846;2023-01-01T11:39:49;13.80;67.60
76269;DHT22;65088;52.352;4.846;2023-01-01T11:42:21;13.70;67.70
76269;DHT22;65088;52.352;4.846;2023-01-01T11:44:54;13.70;67.60
76269;DHT22;65088;52.352;4.846;2023-01-01T11:47:57;13.80;67.40
76269;DHT22;65088;52.352;4.846;2023-01-01T11:50:49;13.80;67.10
76269;DHT22;65088;52.352;4.846;2023-01-01T11:53:28;13.70;67.00
76269;DHT22;65088;52.352;4.846;2023-01-01T11:56:02;13.70;67.10
76269;DHT22;65088;52.352;4.846;2023-01-01T11:58:37;13.60;67.30
76269;DHT22;65088;52.352;4.846;2023-01-01T12:01:12;13.60;67.30
76269;DHT22;65088;52.352;4.846;2023-01-01T12:03:51;13.50;67.40
76269;DHT22;65088;52.352;4.846;2023-01-01T12:06:25;13.50;67.40
76269;DHT22;65088;52.352;4.846;2023-01-01T12:09:03;13.50;67.50
76269;DHT22;65088;52.352;4.846;2023-01-01T12:11:39;13.50;67.50
76269;DHT22;65088;52.352;4.846;2023-01-01T12:14:16;13.50;67.50
76269;DHT22;65088;52.352;4.846;2023-01-01T12:16:51;13.50;67.70
76269;DHT22;65088;52.352;4.846;2023-01-01T12:19:29;13.50;67.80
76269;DHT22;65088;52.352;4.846;2023-01-01T12:22:00;13.40;68.00
76269;DHT22;65088;52.352;4.846;2023-01-01T12:24:32;13.40;68.00
76269;DHT22;65088;52.352;4.846;2023-01-01T12:27:14;13.40;68.00
76269;DHT22;65088;52.352;4.846;2023-01-01T12:30:12;13.40;68.20
76269;DHT22;65088;52.352;4.846;2023-01-01T12:36:04;13.50;68.10
76269;DHT22;65088;52.352;4.846;2023-01-01T12:38:52;13.40;68.30
76269;DHT22;65088;52.352;4.846;2023-01-01T12:41:33;13.40;68.50
76269;DHT22;65088;52.352;4.846;2023-01-01T12:44:10;13.40;68.60
76269;DHT22;65088;52.352;4.846;2023-01-01T12:46:48;13.40;68.60
76269;DHT22;65088;52.352;4.846;2023-01-01T12:49:44;13.40;68.40
76269;DHT22;65088;52.352;4.846;2023-01-01T12:52:29;13.40;68.10
76269;DHT22;65088;52.352;4.846;2023-01-01T12:58:03;13.30;68.10
76269;DHT22;65088;52.352;4.846;2023-01-01T13:00:37;13.30;68.10
76269;DHT22;65088;52.352;4.846;2023-01-01T13:03:14;13.30;68.30
76269;DHT22;65088;52.352;4.846;2023-01-01T13:05:48;13.20;68.40
76269;DHT22;65088;52.352;4.846;2023-01-01T13:08:21;13.20;68.50
76269;DHT22;65088;52.352;4.846;2023-01-01T13:10:53;13.20;68.20
76269;DHT22;65088;52.352;4.846;2023-01-01T13:13:24;13.20;68.20
76269;DHT22;65088;52.352;4.846;2023-01-01T13:15:54;13.20;68.10
76269;DHT22;65088;52.352;4.846;2023-01-01T13:18:27;13.20;68.20
76269;DHT22;65088;52.352;4.846;2023-01-01T13:21:00;13.10;68.10
76269;DHT22;65088;52.352;4.846;2023-01-01T13:23:50;13.20;68.00
76269;DHT22;65088;52.352;4.846;2023-01-01T13:26:37;13.20;67.80
76269;DHT22;65088;52.352;4.846;2023-01-01T13:29:32;13.20;67.70
76269;DHT22;65088;52.352;4.846;2023-01-01T13:32:07;13.10;67.70
76269;DHT22;65088;52.352;4.846;2023-01-01T13:37:44;13.10;67.70
76269;DHT22;65088;52.352;4.846;2023-01-01T13:43:34;13.10;67.50
76269;DHT22;65088;52.352;4.846;2023-01-01T13:46:04;13.10;67.50
76269;DHT22;65088;52.352;4.846;2023-01-01T13:51:57;13.20;67.40
76269;DHT22;65088;52.352;4.846;2023-01-01T13:55:01;13.10;67.40
76269;DHT22;65088;52.352;4.846;2023-01-01T13:57:57;13.10;67.40
76269;DHT22;65088;52.352;4.846;2023-01-01T14:00:44;13.10;67.60
76269;DHT22;65088;52.352;4.846;2023-01-01T14:03:24;13.10;67.60
76269;DHT22;65088;52.352;4.846;2023-01-01T14:05:57;13.10;67.70
76269;DHT22;65088;52.352;4.846;2023-01-01T14:08:28;13.10;67.70
76269;DHT22;65088;52.352;4.846;2023-01-01T14:10:59;13.10;67.90
76269;DHT22;65088;52.352;4.846;2023-01-01T14:13:29;13.10;68.00
76269;DHT22;65088;52.352;4.846;2023-01-01T14:16:03;13.10;68.00
76269;DHT22;65088;52.352;4.846;2023-01-01T14:18:38;13.00;68.10
76269;DHT22;65088;52.352;4.846;2023-01-01T14:21:10;13.00;68.30
76269;DHT22;65088;52.352;4.846;2023-01-01T14:23:42;12.90;68.50
76269;DHT22;65088;52.352;4.846;2023-01-01T14:26:14;12.90;68.80
76269;DHT22;65088;52.352;4.846;2023-01-01T14:28:45;12.90;69.00
76269;DHT22;65088;52.352;4.846;2023-01-01T14:31:20;12.90;69.20
76269;DHT22;65088;52.352;4.846;2023-01-01T14:33:50;12.90;69.40
76269;DHT22;65088;52.352;4.846;2023-01-01T14:36:21;12.90;69.50
76269;DHT22;65088;52.352;4.846;2023-01-01T14:38:53;12.80;69.60
76269;DHT22;65088;52.352;4.846;2023-01-01T14:41:26;12.80;69.80
76269;DHT22;65088;52.352;4.846;2023-01-01T14:44:01;12.80;69.90
76269;DHT22;65088;52.352;4.846;2023-01-01T14:46:39;12.70;70.20
76269;DHT22;65088;52.352;4.846;2023-01-01T14:49:10;12.60;70.50
76269;DHT22;65088;52.352;4.846;2023-01-01T14:51:42;12.60;70.60
76269;DHT22;65088;52.352;4.846;2023-01-01T14:54:15;12.60;70.80
76269;DHT22;65088;52.352;4.846;2023-01-01T14:56:48;12.50;70.90
76269;DHT22;65088;52.352;4.846;2023-01-01T14:59:22;12.50;71.00
76269;DHT22;65088;52.352;4.846;2023-01-01T15:02:03;12.50;71.00
76269;DHT22;65088;52.352;4.846;2023-01-01T15:04:39;12.50;71.10
76269;DHT22;65088;52.352;4.846;2023-01-01T15:07:18;12.50;71.10
76269;DHT22;65088;52.352;4.846;2023-01-01T15:09:49;12.50;71.30
76269;DHT22;65088;52.352;4.846;2023-01-01T15:12:19;12.50;71.40
76269;DHT22;65088;52.352;4.846;2023-01-01T15:14:50;12.50;71.40
76269;DHT22;65088;52.352;4.846;2023-01-01T15:17:24;12.50;71.50
76269;DHT22;65088;52.352;4.846;2023-01-01T15:20:01;12.50;71.60
76269;DHT22;65088;52.352;4.846;2023-01-01T15:22:32;12.40;71.80
76269;DHT22;65088;52.352;4.846;2023-01-01T15:25:05;12.40;71.90
76269;DHT22;65088;52.352;4.846;2023-01-01T15:27:40;12.40;71.90
76269;DHT22;65088;52.352;4.846;2023-01-01T15:30:22;12.40;71.90
76269;DHT22;65088;52.352;4.846;2023-01-01T15:32:55;12.40;72.10
76269;DHT22;65088;52.352;4.846;2023-01-01T15:35:34;12.30;72.20
76269;DHT22;65088;52.352;4.846;2023-01-01T15:38:09;12.30;72.30
76269;DHT22;65088;52.352;4.846;2023-01-01T15:40:41;12.30;72.40
76269;DHT22;65088;52.352;4.846;2023-01-01T15:43:15;12.30;72.50
76269;DHT22;65088;52.352;4.846;2023-01-01T15:45:54;12.30;72.60
76269;DHT22;65088;52.352;4.846;2023-01-01T15:48:32;12.20;72.80
76269;DHT22;65088;52.352;4.846;2023-01-01T15:51:11;12.20;72.90
76269;DHT22;65088;52.352;4.846;2023-01-01T15:53:53;12.20;72.90
76269;DHT22;65088;52.352;4.846;2023-01-01T15:56:25;12.20;73.00
76269;DHT22;65088;52.352;4.846;2023-01-01T15:58:59;12.20;73.20
76269;DHT22;65088;52.352;4.846;2023-01-01T16:01:31;12.20;73.30
76269;DHT22;65088;52.352;4.846;2023-01-01T16:04:08;12.20;73.40
76269;DHT22;65088;52.352;4.846;2023-01-01T16:06:41;12.20;73.50
76269;DHT22;65088;52.352;4.846;2023-01-01T16:09:12;12.20;73.50
76269;DHT22;65088;52.352;4.846;2023-01-01T16:11:42;12.20;73.60
76269;DHT22;65088;52.352;4.846;2023-01-01T16:14:12;12.20;73.60
76269;DHT22;65088;52.352;4.846;2023-01-01T16:16:43;12.20;73.70
76269;DHT22;65088;52.352;4.846;2023-01-01T16:19:17;12.20;73.70
76269;DHT22;65088;52.352;4.846;2023-01-01T16:21:47;12.20;73.60
76269;DHT22;65088;52.352;4.846;2023-01-01T16:24:19;12.20;73.70
76269;DHT22;65088;52.352;4.846;2023-01-01T16:26:49;12.30;73.60
76269;DHT22;65088;52.352;4.846;2023-01-01T16:29:19;12.30;73.50